Huailai, China
Current Conditions -  °F | °C
As of 5:00 PM on Thursday 27 Nov 2014 (Local Time) from ZBAA Reporting Station
Clear Clear  
Wind Chill: 38°   Ceiling: Unl
Heat Index: 43°   Visibility: 6mi
Dew Point:   Wind: 9mph
Humidity: 19%   Direction: 20°NNE
Pressure: 30.21"   Gusts: NA
Location:  40.4°N, 115.5°E
Report Text: ZBAA 270900Z 02004MPS CAVOK 06/M16 Q1023 NOSIG
Loading
Personal Weather Stations






























Interactive Weather Map New forecast layout! Learn more

10-Day Weather Forecast

Advertisements
Track Severe Weather on mobile